createdAt,value
2018-07-10T00:02:36.540Z,79.50
2018-07-10T00:05:50.184Z,78.94
2018-07-10T00:10:35.025Z,78.60
2018-07-10T00:13:03.538Z,77.67
2018-07-10T00:15:31.929Z,76.29
2018-07-10T00:18:00.385Z,75.68
2018-07-10T00:20:28.855Z,75.42
2018-07-10T00:22:57.498Z,74.59
2018-07-10T00:25:25.897Z,74.32
2018-07-10T00:27:54.428Z,74.12
2018-07-10T00:30:22.957Z,74.17
2018-07-10T00:32:51.488Z,73.67
2018-07-10T00:35:19.992Z,72.95
2018-07-10T00:37:59.782Z,72.28
2018-07-10T00:40:28.206Z,71.15
2018-07-10T00:42:56.605Z,70.69
2018-07-10T00:45:25.084Z,71.24
2018-07-10T00:47:53.477Z,72.01
2018-07-10T00:50:21.881Z,70.64
2018-07-10T00:52:50.384Z,70.85
2018-07-10T00:55:18.819Z,70.77
2018-07-10T00:57:47.320Z,69.88
2018-07-10T01:00:27.840Z,70.00
2018-07-10T01:02:56.350Z,70.36
2018-07-10T01:05:24.797Z,69.19
2018-07-10T01:07:53.257Z,69.27
2018-07-10T01:10:21.673Z,68.35
2018-07-10T01:12:50.133Z,70.49
2018-07-10T01:15:19.210Z,70.07
2018-07-10T01:17:47.993Z,69.85
2018-07-10T01:20:17.367Z,69.68
2018-07-10T01:22:45.957Z,70.57
2018-07-10T01:25:14.752Z,70.27
2018-07-10T01:27:43.293Z,69.15
2018-07-10T01:30:11.765Z,69.76
2018-07-10T01:32:41.640Z,69.53
2018-07-10T01:35:10.046Z,69.76
2018-07-10T01:37:38.580Z,68.93
2018-07-10T01:40:07.085Z,68.44
2018-07-10T01:42:35.543Z,68.07
2018-07-10T01:45:04.242Z,68.21
2018-07-10T01:47:32.703Z,67.83
2018-07-10T01:50:01.179Z,68.16
2018-07-10T01:52:29.686Z,67.44
2018-07-10T01:54:58.253Z,68.00
2018-07-10T01:57:27.176Z,68.31
2018-07-10T01:59:56.018Z,67.69
2018-07-10T02:02:25.117Z,68.65
2018-07-10T02:04:55.257Z,68.34
2018-07-10T02:07:24.912Z,68.72
2018-07-10T02:09:53.449Z,69.05
2018-07-10T02:12:22.013Z,68.85
2018-07-10T02:14:50.521Z,68.83
2018-07-10T02:17:19.079Z,68.95
2018-07-10T02:19:47.645Z,69.41
2018-07-10T02:22:16.981Z,69.47
2018-07-10T02:24:45.860Z,69.10
2018-07-10T02:27:15.480Z,69.19
2018-07-10T02:29:43.973Z,70.36
2018-07-10T02:32:12.462Z,69.56
2018-07-10T02:34:41.007Z,70.37
2018-07-10T02:37:09.655Z,69.73
2018-07-10T02:39:38.202Z,70.19
2018-07-10T02:42:06.798Z,70.25
2018-07-10T02:44:35.623Z,69.33
2018-07-10T02:47:04.122Z,70.07
2018-07-10T02:49:32.650Z,70.03
2018-07-10T02:52:03.293Z,69.92
2018-07-10T02:54:34.584Z,69.86
2018-07-10T02:57:05.300Z,69.66
2018-07-10T02:59:36.958Z,69.90
2018-07-10T03:02:06.861Z,70.54
2018-07-10T03:04:36.721Z,70.15
2018-07-10T03:07:05.730Z,70.79
2018-07-10T03:09:34.222Z,70.26
2018-07-10T03:12:04.190Z,70.35
2018-07-10T03:14:32.670Z,70.31
2018-07-10T03:17:01.441Z,70.48
2018-07-10T03:19:30.284Z,71.02
2018-07-10T03:21:58.732Z,70.90
2018-07-10T03:24:27.205Z,71.07
2018-07-10T03:26:55.733Z,70.72
2018-07-10T03:29:24.549Z,70.85
2018-07-10T03:31:53.993Z,71.04
2018-07-10T03:34:22.628Z,71.08
2018-07-10T03:36:51.384Z,71.15
2018-07-10T03:39:19.868Z,71.11
2018-07-10T03:41:48.341Z,71.64
2018-07-10T03:44:18.097Z,71.85
2018-07-10T03:46:46.553Z,71.33
2018-07-10T03:49:15.068Z,71.16
2018-07-10T03:51:43.561Z,71.72
2018-07-10T03:54:12.087Z,71.87
2018-07-10T03:56:40.578Z,71.92
2018-07-10T03:59:09.045Z,71.85
2018-07-10T04:01:38.252Z,71.95
2018-07-10T04:04:06.727Z,71.73
2018-07-10T04:06:35.522Z,72.08
2018-07-10T04:09:06.608Z,72.01
2018-07-10T04:11:35.185Z,72.28
2018-07-10T04:14:04.589Z,72.74
2018-07-10T04:16:33.053Z,73.06
2018-07-10T04:19:01.505Z,73.56
2018-07-10T04:21:33.293Z,73.35
2018-07-10T04:24:12.237Z,77.63
2018-07-10T04:27:15.202Z,81.07
2018-07-10T04:29:53.723Z,84.15
2018-07-10T04:32:22.550Z,85.75
2018-07-10T04:34:51.028Z,85.53
2018-07-10T04:37:19.521Z,84.42
2018-07-10T04:39:47.990Z,85.80
2018-07-10T04:42:36.104Z,85.09
2018-07-10T04:45:11.419Z,86.90
2018-07-10T04:47:59.801Z,86.78
2018-07-10T04:50:46.962Z,87.84
2018-07-10T04:53:23.846Z,87.22
2018-07-10T04:55:52.446Z,85.72
2018-07-10T04:58:22.058Z,85.29
2018-07-10T05:01:01.819Z,85.34
2018-07-10T05:03:31.221Z,83.18
2018-07-10T05:06:04.167Z,80.96
2018-07-10T05:08:32.674Z,81.83
2018-07-10T05:11:01.369Z,81.61
2018-07-10T05:13:29.925Z,81.12
2018-07-10T05:16:03.350Z,82.42
2018-07-10T05:18:32.487Z,82.08
2018-07-10T05:21:03.590Z,81.03
2018-07-10T05:23:32.093Z,80.46
2018-07-10T05:26:00.572Z,80.84
2018-07-10T05:28:29.129Z,79.69
2018-07-10T05:31:01.431Z,80.09
2018-07-10T05:33:30.185Z,80.57
2018-07-10T05:35:59.083Z,79.84
2018-07-10T05:38:36.754Z,80.07
2018-07-10T05:41:05.445Z,79.71
2018-07-10T05:43:38.853Z,79.76
2018-07-10T05:46:07.373Z,79.71
2018-07-10T05:48:36.545Z,78.87
2018-07-10T05:51:05.009Z,79.13
2018-07-10T05:53:33.493Z,78.93
2018-07-10T05:56:02.097Z,78.33
2018-07-10T05:58:30.656Z,77.56
2018-07-10T06:00:59.112Z,76.95
2018-07-10T06:03:27.542Z,76.26
2018-07-10T06:05:56.087Z,75.31
2018-07-10T06:08:24.589Z,75.27
2018-07-10T06:10:53.110Z,74.91
2018-07-10T06:13:21.553Z,75.78
2018-07-10T06:15:50.058Z,73.67
2018-07-10T06:18:18.528Z,73.50
2018-07-10T06:20:47.069Z,73.64
2018-07-10T06:23:15.556Z,72.12
2018-07-10T06:25:44.045Z,72.33
2018-07-10T06:28:16.082Z,72.77
2018-07-10T06:30:44.641Z,71.41
2018-07-10T06:33:21.643Z,70.76
2018-07-10T06:35:54.546Z,71.40
2018-07-10T06:38:23.055Z,71.68
2018-07-10T06:40:51.956Z,71.39
2018-07-10T06:43:26.198Z,70.63
2018-07-10T06:45:54.865Z,70.69
2018-07-10T06:48:23.952Z,70.13
2018-07-10T06:50:52.492Z,69.67
2018-07-10T06:53:24.259Z,69.51
2018-07-10T06:55:57.449Z,69.46
2018-07-10T06:58:26.453Z,65.94
2018-07-10T07:00:56.200Z,64.46
2018-07-10T07:03:25.991Z,66.82
2018-07-10T07:05:55.019Z,64.80
2018-07-10T07:08:24.760Z,65.72
2018-07-10T07:10:53.279Z,64.20
2018-07-10T07:13:21.814Z,64.06
2018-07-10T07:15:50.301Z,64.59
2018-07-10T07:18:18.828Z,63.72
2018-07-10T07:20:47.297Z,64.74
2018-07-10T07:23:15.813Z,63.60
2018-07-10T07:25:45.024Z,62.92
2018-07-10T07:28:13.561Z,62.75
2018-07-10T07:30:42.057Z,62.34
2018-07-10T07:33:10.562Z,62.39
2018-07-10T07:35:39.055Z,62.90
2018-07-10T07:38:07.618Z,63.58
2018-07-10T07:40:36.245Z,64.72
2018-07-10T07:43:06.801Z,63.77
2018-07-10T07:45:36.330Z,63.65
2018-07-10T07:48:04.908Z,62.59
2018-07-10T07:50:33.507Z,63.36
2018-07-10T07:53:02.253Z,63.74
2018-07-10T07:55:32.105Z,63.61
2018-07-10T07:58:00.617Z,63.24
2018-07-10T08:00:29.107Z,62.34
2018-07-10T08:02:58.801Z,59.96
2018-07-10T08:05:27.238Z,60.83
2018-07-10T08:07:55.708Z,61.50
2018-07-10T08:10:24.402Z,61.45
2018-07-10T08:12:53.229Z,62.15
2018-07-10T08:15:21.745Z,62.73
2018-07-10T08:17:50.252Z,62.37
2018-07-10T08:20:19.049Z,61.97
2018-07-10T08:22:47.526Z,61.90
2018-07-10T08:25:19.634Z,62.79
2018-07-10T08:27:50.965Z,62.06
2018-07-10T08:30:19.658Z,60.11
2018-07-10T08:32:49.832Z,60.14
2018-07-10T08:35:18.489Z,58.72
2018-07-10T08:37:47.012Z,58.15
2018-07-10T08:40:15.471Z,58.20
2018-07-10T08:42:43.940Z,58.48
2018-07-10T08:45:13.368Z,58.39
2018-07-10T08:47:42.393Z,57.35
2018-07-10T08:50:11.526Z,57.77
2018-07-10T08:52:40.069Z,58.03
2018-07-10T08:55:08.526Z,57.94
2018-07-10T08:57:36.986Z,56.18
2018-07-10T09:00:05.564Z,57.45
2018-07-10T09:02:34.051Z,58.37
2018-07-10T09:05:02.537Z,58.90
2018-07-10T09:07:30.994Z,57.72
2018-07-10T09:09:59.470Z,56.99
2018-07-10T09:12:27.941Z,55.99
2018-07-10T09:14:56.509Z,56.91
2018-07-10T09:17:25.220Z,56.12
2018-07-10T09:19:53.666Z,55.58
2018-07-10T09:22:22.152Z,56.02
2018-07-10T09:24:54.006Z,56.35
2018-07-10T09:27:23.585Z,56.17
2018-07-10T09:29:52.165Z,55.05
2018-07-10T09:32:26.647Z,55.26
2018-07-10T09:34:56.887Z,55.04
2018-07-10T09:37:30.696Z,54.78
2018-07-10T09:40:04.605Z,53.25
2018-07-10T09:42:35.829Z,52.47
2018-07-10T09:45:05.205Z,51.92
2018-07-10T09:47:33.732Z,52.62
2018-07-10T09:50:02.481Z,52.66
2018-07-10T09:52:31.046Z,53.01
2018-07-10T09:54:59.765Z,54.31
2018-07-10T09:57:40.568Z,54.22
2018-07-10T10:00:09.079Z,53.59
2018-07-10T10:02:38.428Z,54.09
2018-07-10T10:05:07.677Z,53.70
2018-07-10T10:07:36.585Z,55.42
2018-07-10T10:10:05.481Z,55.18
2018-07-10T10:12:34.423Z,55.83
2018-07-10T10:15:02.965Z,55.59
2018-07-10T10:17:34.416Z,54.52
2018-07-10T10:20:04.134Z,55.28
2018-07-10T10:22:33.607Z,55.26
2018-07-10T10:25:03.528Z,53.95
2018-07-10T10:27:32.712Z,55.21
2018-07-10T10:30:02.048Z,55.17
2018-07-10T10:32:30.969Z,54.39
2018-07-10T10:34:59.861Z,56.37
2018-07-10T10:37:28.596Z,56.67
2018-07-10T10:39:57.625Z,57.72
2018-07-10T10:42:27.753Z,56.70
2018-07-10T10:44:59.702Z,56.58
2018-07-10T10:47:33.305Z,55.88
2018-07-10T10:50:02.783Z,56.45
2018-07-10T10:52:31.434Z,55.87
2018-07-10T10:55:02.862Z,55.96
2018-07-10T10:57:39.955Z,56.12
2018-07-10T11:00:08.798Z,54.71
2018-07-10T11:02:37.347Z,55.03
2018-07-10T11:05:05.830Z,55.14
2018-07-10T11:07:40.268Z,55.22
2018-07-10T11:10:08.766Z,54.28
2018-07-10T11:12:37.235Z,55.69
2018-07-10T11:15:06.498Z,56.14
2018-07-10T11:17:45.038Z,55.74
2018-07-10T11:20:22.474Z,57.19
2018-07-10T11:23:01.799Z,55.66
2018-07-10T11:25:33.637Z,56.45
2018-07-10T11:28:05.430Z,55.42
2018-07-10T11:30:34.269Z,55.49
2018-07-10T11:33:04.162Z,55.30
2018-07-10T11:35:33.377Z,55.48
2018-07-10T11:38:10.441Z,55.27
2018-07-10T11:40:44.337Z,55.70
2018-07-10T11:43:19.204Z,54.88
2018-07-10T11:45:47.688Z,54.24
2018-07-10T11:48:16.173Z,54.38
2018-07-10T11:50:44.593Z,54.57
2018-07-10T11:53:13.109Z,55.43
2018-07-10T11:55:41.597Z,55.17
2018-07-10T11:58:10.294Z,56.25
2018-07-10T12:00:39.108Z,56.23
2018-07-10T12:03:08.125Z,55.71
2018-07-10T12:05:38.384Z,56.11
2018-07-10T12:08:06.930Z,55.18
2018-07-10T12:10:36.428Z,55.98
2018-07-10T12:13:04.915Z,55.79
2018-07-10T12:15:33.402Z,55.74
2018-07-10T12:18:03.904Z,56.67
2018-07-10T12:20:37.746Z,55.41
2018-07-10T12:23:08.261Z,55.35
2018-07-10T12:25:39.573Z,54.59
2018-07-10T12:28:09.469Z,55.38
2018-07-10T12:30:38.045Z,55.00
2018-07-10T12:33:06.885Z,56.02
2018-07-10T12:35:35.384Z,56.44
2018-07-10T12:38:03.922Z,56.35
2018-07-10T12:40:32.530Z,56.42
2018-07-10T12:43:01.010Z,57.30
2018-07-10T12:45:29.507Z,56.60
2018-07-10T12:47:59.931Z,57.81
2018-07-10T12:50:28.606Z,57.39
2018-07-10T12:52:57.193Z,57.54
2018-07-10T12:55:26.998Z,58.70
2018-07-10T12:57:56.344Z,58.67
2018-07-10T13:00:26.596Z,58.38
2018-07-10T13:02:55.138Z,58.90
2018-07-10T13:05:27.408Z,59.58
2018-07-10T13:07:55.893Z,60.29
2018-07-10T13:10:24.509Z,60.34
2018-07-10T13:12:53.081Z,60.70
2018-07-10T13:15:21.541Z,60.84
2018-07-10T13:17:51.264Z,61.36
2018-07-10T13:20:20.170Z,61.53
2018-07-10T13:22:48.647Z,61.73
2018-07-10T13:25:21.651Z,62.05
2018-07-10T13:27:50.595Z,61.96
2018-07-10T13:30:19.234Z,61.81
2018-07-10T13:32:48.129Z,62.90
2018-07-10T13:35:16.645Z,63.06
2018-07-10T13:37:45.766Z,62.83
2018-07-10T13:40:14.596Z,63.13
2018-07-10T13:42:54.626Z,62.73
2018-07-10T13:45:25.281Z,62.69
2018-07-10T13:47:53.862Z,62.67
2018-07-10T13:50:27.389Z,63.32
2018-07-10T13:52:56.760Z,61.71
2018-07-10T13:55:25.553Z,61.26
2018-07-10T13:57:57.799Z,62.23
2018-07-10T14:00:26.376Z,59.96
2018-07-10T14:02:55.393Z,61.24
2018-07-10T14:05:24.928Z,59.58
2018-07-10T14:07:53.882Z,61.26
2018-07-10T14:10:22.969Z,62.26
2018-07-10T14:12:51.438Z,61.30
2018-07-10T14:15:19.945Z,58.49
2018-07-10T14:17:48.705Z,59.48
2018-07-10T14:20:17.205Z,60.54
2018-07-10T14:22:45.894Z,60.84
2018-07-10T14:25:14.333Z,61.68
2018-07-10T14:27:42.789Z,62.03
2018-07-10T14:30:11.382Z,63.90
2018-07-10T14:32:39.828Z,62.29
2018-07-10T14:35:08.314Z,61.53
2018-07-10T14:37:37.382Z,61.86
2018-07-10T14:40:05.914Z,62.01
2018-07-10T14:42:34.414Z,63.02
2018-07-10T14:45:06.653Z,63.09
2018-07-10T14:47:37.761Z,62.21
2018-07-10T14:50:06.353Z,62.09
2018-07-10T14:52:34.930Z,61.77
2018-07-10T14:55:03.472Z,60.69
2018-07-10T14:57:32.016Z,61.59
2018-07-10T15:00:00.804Z,61.96
2018-07-10T15:02:29.352Z,60.89
2018-07-10T15:04:57.872Z,60.01
2018-07-10T15:07:26.349Z,56.33
2018-07-10T15:09:54.797Z,61.21
2018-07-10T15:12:23.285Z,61.93
2018-07-10T15:14:52.018Z,61.77
2018-07-10T15:17:25.920Z,61.98
2018-07-10T15:19:54.528Z,62.24
2018-07-10T15:22:23.050Z,62.57
2018-07-10T15:24:51.545Z,63.65
2018-07-10T15:27:20.011Z,62.73
2018-07-10T15:29:48.588Z,63.77
2018-07-10T15:32:17.089Z,64.29
2018-07-10T15:34:45.602Z,64.63
2018-07-10T15:37:14.150Z,65.65
2018-07-10T15:39:42.630Z,65.30
2018-07-10T15:42:11.228Z,64.95
2018-07-10T15:44:39.721Z,65.98
2018-07-10T15:47:08.213Z,65.21
2018-07-10T15:49:36.720Z,65.11
2018-07-10T15:52:05.673Z,67.16
2018-07-10T15:54:34.183Z,68.22
2018-07-10T15:57:02.667Z,69.62
2018-07-10T15:59:31.137Z,69.23
2018-07-10T16:01:59.641Z,69.72
2018-07-10T16:04:28.132Z,70.23
2018-07-10T16:06:56.676Z,74.47
2018-07-10T16:09:25.157Z,77.34
2018-07-10T16:11:58.993Z,83.88
2018-07-10T16:14:28.561Z,84.56
2018-07-10T16:16:57.554Z,84.50
2018-07-10T16:19:30.416Z,83.78
2018-07-10T16:22:03.498Z,84.34
2018-07-10T16:24:35.422Z,81.77
2018-07-10T16:27:03.921Z,82.55
2018-07-10T16:29:32.370Z,82.94
2018-07-10T16:32:02.500Z,87.12
2018-07-10T16:34:31.018Z,92.95
2018-07-10T16:36:59.503Z,95.74
2018-07-10T16:39:27.995Z,96.37
2018-07-10T16:42:01.756Z,94.48
2018-07-10T16:44:30.294Z,94.42
2018-07-10T16:47:06.012Z,93.20
2018-07-10T16:49:39.738Z,94.00
2018-07-10T16:52:13.433Z,93.98
2018-07-10T16:54:42.006Z,92.25
2018-07-10T16:57:10.546Z,92.05
2018-07-10T16:59:39.885Z,91.04
2018-07-10T17:02:08.425Z,90.41
2018-07-10T17:04:37.601Z,90.50
2018-07-10T17:07:06.131Z,91.60
2018-07-10T17:09:34.804Z,91.39
2018-07-10T17:12:03.366Z,90.68
2018-07-10T17:14:31.889Z,90.68
2018-07-10T17:17:00.434Z,91.80
2018-07-10T17:19:29.718Z,92.28
2018-07-10T17:21:58.250Z,91.79
2018-07-10T17:24:26.809Z,90.94
2018-07-10T17:26:55.437Z,92.52
2018-07-10T17:29:24.032Z,91.04
2018-07-10T17:31:52.589Z,91.64
2018-07-10T17:34:21.190Z,90.20
2018-07-10T17:36:50.181Z,88.79
2018-07-10T17:39:19.025Z,90.05
2018-07-10T17:41:47.858Z,88.64
2018-07-10T17:44:16.474Z,88.18
2018-07-10T17:46:44.979Z,86.28
2018-07-10T17:49:13.604Z,86.46
2018-07-10T17:51:42.317Z,86.12
2018-07-10T17:54:10.803Z,85.66
2018-07-10T17:56:39.387Z,84.91
2018-07-10T17:59:08.693Z,85.13
2018-07-10T18:01:37.880Z,84.56
2018-07-10T18:04:06.989Z,83.90
2018-07-10T18:06:35.872Z,83.73
2018-07-10T18:09:05.505Z,83.75
2018-07-10T18:11:33.991Z,83.68
2018-07-10T18:14:02.468Z,83.55
2018-07-10T18:16:33.778Z,83.37
2018-07-10T18:19:03.020Z,83.39
2018-07-10T18:21:31.985Z,83.72
2018-07-10T18:24:00.645Z,83.60
2018-07-10T18:26:29.162Z,83.17
2018-07-10T18:28:57.713Z,83.93
2018-07-10T18:31:27.122Z,85.01
2018-07-10T18:33:55.770Z,85.11
2018-07-10T18:36:24.323Z,86.28
2018-07-10T18:38:52.798Z,86.85
2018-07-10T18:41:21.321Z,86.03
2018-07-10T18:43:49.853Z,86.86
2018-07-10T18:46:18.364Z,86.86
2018-07-10T18:48:46.969Z,86.85
2018-07-10T18:51:15.455Z,88.17
2018-07-10T18:53:44.074Z,87.83
2018-07-10T18:56:12.658Z,86.94
2018-07-10T18:58:49.528Z,86.92
2018-07-10T19:01:58.338Z,87.03
2018-07-10T19:05:07.372Z,86.42
2018-07-10T19:07:38.437Z,86.52
2018-07-10T19:10:07.284Z,87.22
2018-07-10T19:12:36.427Z,87.17
2018-07-10T19:15:05.226Z,87.30
2018-07-10T19:17:34.437Z,87.86
2018-07-10T19:20:07.914Z,88.24
2018-07-10T19:23:10.902Z,87.61
2018-07-10T19:25:39.480Z,88.40
2018-07-10T19:28:08.255Z,87.50
2018-07-10T19:30:45.821Z,87.66
2018-07-10T19:33:14.403Z,89.26
2018-07-10T19:35:43.691Z,89.29
2018-07-10T19:38:12.723Z,89.32
2018-07-10T19:40:41.262Z,89.70
2018-07-10T19:43:13.483Z,89.71
2018-07-10T19:45:43.745Z,89.44
2018-07-10T19:48:14.426Z,88.31
2018-07-10T19:50:44.377Z,88.38
2018-07-10T19:53:13.049Z,88.55
2018-07-10T19:55:44.603Z,89.27
2018-07-10T19:58:26.343Z,89.34
2018-07-10T20:02:03.371Z,90.04
2018-07-10T20:04:47.076Z,90.35
2018-07-10T20:07:20.405Z,90.38
2018-07-10T20:10:11.188Z,90.44
2018-07-10T20:12:42.817Z,90.98
2018-07-10T20:15:21.905Z,91.21
2018-07-10T20:17:59.363Z,90.12
2018-07-10T20:20:30.062Z,89.69
2018-07-10T20:23:04.200Z,90.06
2018-07-10T20:25:42.458Z,90.73
2018-07-10T20:28:23.421Z,90.65
2018-07-10T20:33:36.926Z,91.77
2018-07-10T20:36:06.483Z,92.19
2018-07-10T20:38:35.337Z,91.78
2018-07-10T20:41:05.133Z,91.94
2018-07-10T20:43:39.448Z,91.21
2018-07-10T20:46:09.801Z,91.81
2018-07-10T20:48:46.710Z,91.85
2018-07-10T20:51:15.236Z,91.23
2018-07-10T20:53:53.805Z,91.67
2018-07-10T20:56:36.554Z,90.86
2018-07-10T20:59:12.994Z,90.75
2018-07-10T21:01:42.390Z,90.83
2018-07-10T21:04:33.342Z,90.52
2018-07-10T21:07:04.756Z,90.27
2018-07-10T21:10:50.418Z,90.08
2018-07-10T21:13:44.004Z,89.36
2018-07-10T21:17:17.638Z,89.26
2018-07-10T21:19:56.581Z,87.44
2018-07-10T21:24:10.113Z,87.15
2018-07-10T21:26:42.960Z,86.03
2018-07-10T21:30:20.748Z,86.08
2018-07-10T21:32:59.126Z,85.99
2018-07-10T21:35:32.949Z,86.67
2018-07-10T21:38:07.034Z,85.96
2018-07-10T21:41:54.951Z,85.13
2018-07-10T21:44:39.215Z,85.04
2018-07-10T21:47:16.781Z,84.97
2018-07-10T21:49:48.069Z,82.88
2018-07-10T21:52:16.586Z,83.29
2018-07-10T21:54:50.082Z,83.53
2018-07-10T21:57:23.409Z,83.85
2018-07-10T22:00:06.642Z,83.44
2018-07-10T22:02:35.090Z,83.76
2018-07-10T22:05:03.575Z,82.83
2018-07-10T22:07:32.045Z,81.61
2018-07-10T22:10:03.121Z,82.30
2018-07-10T22:12:31.589Z,81.73
2018-07-10T22:15:00.305Z,81.23
2018-07-10T22:17:28.893Z,81.58
2018-07-10T22:19:58.616Z,80.09
2018-07-10T22:22:30.378Z,79.68
2018-07-10T22:25:02.098Z,79.75
2018-07-10T22:27:30.502Z,79.74
2018-07-10T22:30:05.017Z,79.95
2018-07-10T22:32:45.214Z,80.08
2018-07-10T22:35:14.771Z,80.27
2018-07-10T22:37:43.413Z,79.80
2018-07-10T22:40:11.885Z,80.58
2018-07-10T22:42:40.298Z,79.75
2018-07-10T22:45:08.750Z,80.27
2018-07-10T22:47:37.458Z,79.14
2018-07-10T22:50:07.916Z,79.08
2018-07-10T22:52:39.876Z,79.33
2018-07-10T22:55:08.766Z,79.73
2018-07-10T22:57:37.277Z,79.07
2018-07-10T23:00:05.830Z,77.01
2018-07-10T23:02:40.702Z,77.21
2018-07-10T23:05:09.254Z,77.32
2018-07-10T23:07:37.827Z,77.28
2018-07-10T23:10:06.374Z,78.28
2018-07-10T23:12:34.922Z,78.73
2018-07-10T23:15:03.437Z,79.46
2018-07-10T23:17:32.127Z,80.06
2018-07-10T23:20:00.669Z,80.12
2018-07-10T23:22:40.274Z,80.16
2018-07-10T23:25:08.847Z,80.70
2018-07-10T23:27:37.405Z,81.81
2018-07-10T23:30:05.985Z,80.76
2018-07-10T23:32:34.528Z,79.55
2018-07-10T23:35:03.025Z,80.27
2018-07-10T23:37:31.576Z,80.13
2018-07-10T23:40:05.413Z,80.20
2018-07-10T23:42:36.235Z,80.89
2018-07-10T23:45:13.813Z,81.78
2018-07-10T23:47:42.706Z,81.76
2018-07-10T23:50:16.769Z,82.30
2018-07-10T23:52:56.132Z,82.36
2018-07-10T23:55:24.688Z,82.42
2018-07-10T23:57:53.126Z,82.06
